Terminal Aerodrome Forecast
Issued by NWS Charleston, SC

Home | Current Version | Previous Version | Text Only | Print | Product List | Glossary On
Versions: 1 2 3 4 5 6 7 8 9 10 11 12 13 14 15 16 17 18 19 20 21 22 23
000
FTUS42 KCHS 291720
TAFSAV
TAF
KSAV 291720Z 2918/3018 10008KT P6SM SCT040
     FM301000 VRB02KT P6SM SCT015
     FM301400 06005KT P6SM SCT040=

USA.gov is the U.S. government's official web portal to all federal, state and local government web resources and services.